EW1052 Firenze IT current weather conditions

sailwx.info

Wind from 170

Air temperature 6.1° C
Dewpoint 4.3° C

Last reported at 2019-Dec-14 12:01 UTC.
Time now 2019-Dec-14 12:42 UTC

Location: N 43°42' E 011°21'.
View on Google Maps.

See reports from other nearby stations

  
Tides and Currents Weather Stations Pressure Air Temp Water Temp Dewpoint Dewpoint Depression Visibility Wind Speed Wind Dir Waves Ship Positions
date/time (UTC)wind fromknots sea level pressurealtimeterstation pressurevisibilityair tempwater tempwave heightnotes
2019-Dec-14 12:01 170 6.1
2019-Dec-14 11:46 206 0 gusting 4 5.6
2019-Dec-14 11:30 348 5.0
2019-Dec-14 11:16 152 0 gusting 3 4.4
2019-Dec-14 11:02 039 1 gusting 2 5.0
2019-Dec-14 10:46 032 1 gusting 2 4.4
2019-Dec-14 10:31 212 3.9
2019-Dec-14 10:16 207 3 gusting 5 5.0
2019-Dec-14 10:01 197 0 gusting 2 4.4
2019-Dec-14 09:46 293 4.4
2019-Dec-14 09:30 127 0 gusting 3 3.9
2019-Dec-14 09:00 023 1 gusting 3 4.4
2019-Dec-14 08:45 351 4.4
2019-Dec-14 08:30 136 0 gusting 2 2.2
2019-Dec-14 08:15 224 0 gusting 3 3.3
2019-Dec-14 08:00 046 2.8
2019-Dec-14 07:46 057 0 gusting 4 1.7
2019-Dec-14 07:30 203 0 gusting 3 3.9
2019-Dec-14 07:15 159 2 gusting 5 2.8
2019-Dec-14 07:00 120 2.2
2019-Dec-14 06:50 330 1 gusting 3 2.8
2019-Dec-14 06:32 204 1 gusting 3 2.2
2019-Dec-14 06:16 190 3 gusting 5 6.1
2019-Dec-14 06:02 096 3 gusting 5 6.7
2019-Dec-14 05:46 330 0 gusting 1 4.4
2019-Dec-14 05:31 174 2.2
2019-Dec-14 05:17 157 2 gusting 4 0.6
2019-Dec-14 05:01 079 0 gusting 3 1.7
2019-Dec-14 04:47 188 2 gusting 4 2.2
2019-Dec-14 04:31 295 0 gusting 1 3.3
2019-Dec-14 04:18 075 2 gusting 3 2.2
2019-Dec-14 04:01 297 0 gusting 3 2.8
2019-Dec-14 03:46 358 3 gusting 5 3.3
2019-Dec-14 03:31 273 6.7
2019-Dec-14 03:16 136 0 gusting 4 6.7
2019-Dec-14 03:02 084 2 gusting 5 7.8
2019-Dec-14 02:46 158 0 gusting 4 6.1
2019-Dec-14 02:31 150 2 gusting 4 3.9
2019-Dec-14 02:15 305 2 gusting 4 6.7
2019-Dec-14 02:00 119 2 gusting 4 6.7
2019-Dec-14 01:46 139 5.6
2019-Dec-14 01:30 124 6.1
2019-Dec-14 01:15 262 6.7
2019-Dec-14 01:00 240 1 gusting 4 6.7
2019-Dec-14 00:45 146 2 gusting 3 6.1
2019-Dec-14 00:30 129 2 gusting 5 4.4
2019-Dec-14 00:15 193 1 gusting 6 3.3
2019-Dec-14 00:02 208 1 gusting 4 4.4
2019-Dec-13 23:48 207 2 gusting 3 2.8
2019-Dec-13 23:33 173 2 gusting 4 4.4
2019-Dec-13 23:18 111 4.4
2019-Dec-13 23:01 181 0 gusting 1 4.4
2019-Dec-13 22:46 360 4.4
2019-Dec-13 22:31 224 5.0
2019-Dec-13 22:17 148 5.0
2019-Dec-13 22:01 148 1 gusting 2 5.6
2019-Dec-13 21:46 155 2 gusting 3 5.0
2019-Dec-13 21:33 151 2 gusting 4 5.0
2019-Dec-13 21:17 131 2 gusting 4 4.4
2019-Dec-13 21:01 167 1 gusting 3 3.3
2019-Dec-13 20:46 172 0 gusting 3 3.9
2019-Dec-13 20:31 224 0 gusting 2 4.4
2019-Dec-13 20:16 054 0 gusting 3 3.9
2019-Dec-13 20:00 136 3.3
2019-Dec-13 19:46 146 0 gusting 2 2.2
2019-Dec-13 19:32 203 1 gusting 2 2.2
2019-Dec-13 19:16 207 1 gusting 3 2.2
2019-Dec-13 19:01 108 0 gusting 7 3.3
2019-Dec-13 18:47 065 4 gusting 6 3.3
2019-Dec-13 18:30 051 5 gusting 6 2.8
2019-Dec-13 18:16 358 4 gusting 6 2.8
2019-Dec-13 18:01 056 5 gusting 7 2.2
2019-Dec-13 17:46 022 5 gusting 11 2.2
2019-Dec-13 17:31 006 7 gusting 13 2.2
2019-Dec-13 17:16 023 9 gusting 13 2.2
2019-Dec-13 17:01 040 6 gusting 13 2.2
2019-Dec-13 16:46 345 8 gusting 19 2.2
2019-Dec-13 16:31 348 11 gusting 16 2.2
2019-Dec-13 16:16 337 6 gusting 13 2.2
2019-Dec-13 16:00 351 10 gusting 19 2.2
2019-Dec-13 15:46 008 13 gusting 20 2.8
2019-Dec-13 15:31 321 6 gusting 8 3.3
2019-Dec-13 15:15 018 6 gusting 12 3.3
2019-Dec-13 15:00 356 12 gusting 24 4.4
2019-Dec-13 14:46 278 5 gusting 17 7.8
2019-Dec-13 14:30 238 8 gusting 19 8.3
2019-Dec-13 14:15 210 9 gusting 22 8.3
2019-Dec-13 14:00 293 2 gusting 10 7.8
2019-Dec-13 13:45 205 2 gusting 12 7.8
2019-Dec-13 13:30 200 5 gusting 18 7.8
2019-Dec-13 13:15 166 12 gusting 27 10.6
2019-Dec-13 13:00 165 18 gusting 35 10.6
2019-Dec-13 12:45 127 13 gusting 25 10.0
2019-Dec-13 12:32 194 15 gusting 31 10.0
2019-Dec-13 12:16 187 13 gusting 24 8.9
2019-Dec-13 12:02 172 10 gusting 21 8.9
2019-Dec-13 11:46 154 5 gusting 13 8.3
2019-Dec-13 11:31 169 8 gusting 17 8.3
2019-Dec-13 11:17 136 10 gusting 20 8.9
2019-Dec-13 11:02 199 6 gusting 11 8.3
2019-Dec-13 10:46 191 5 gusting 12 7.8
2019-Dec-13 10:31 187 7 gusting 16 8.3
2019-Dec-13 10:16 153 8 gusting 15 8.3
2019-Dec-13 10:00 149 8 gusting 16 8.3
2019-Dec-13 09:46 186 8 gusting 17 8.3
2019-Dec-13 09:30 238 8 gusting 18 7.8
2019-Dec-13 09:15 167 12 gusting 18 7.8
2019-Dec-13 09:00 215 7 gusting 17 7.8
2019-Dec-13 08:45 190 9 gusting 18 7.2
2019-Dec-13 08:30 186 9 gusting 19 6.7
2019-Dec-13 08:15 156 9 gusting 18 6.7
2019-Dec-13 08:00 155 11 gusting 18 6.1
2019-Dec-13 07:32 191 9 gusting 14 5.6
2019-Dec-13 07:17 191 5 gusting 12 5.0
2019-Dec-13 07:02 218 4 gusting 12 5.0
2019-Dec-13 06:49 168 6 gusting 14 5.0
2019-Dec-13 06:33 168 6 gusting 14 5.0
2019-Dec-13 06:16 139 6 gusting 13 5.0
2019-Dec-13 06:01 159 7 gusting 15 5.0
2019-Dec-13 05:46 180 6 gusting 17 5.0
2019-Dec-13 05:30 186 6 gusting 12 5.0
2019-Dec-13 05:16 152 6 gusting 13 4.4
2019-Dec-13 05:02 156 5 gusting 10 4.4
2019-Dec-13 04:46 172 1 gusting 7 4.4
2019-Dec-13 04:31 204 6 gusting 12 4.4
2019-Dec-13 04:16 152 4 gusting 10 4.4
2019-Dec-13 04:01 153 3.9
2019-Dec-13 03:46 124 4 gusting 7 2.8
2019-Dec-13 03:31 321 0 gusting 7 3.3
2019-Dec-13 03:15 217 1 gusting 7 5.0
2019-Dec-13 03:00 167 2 gusting 10 3.9
2019-Dec-13 02:45 180 2 gusting 5 1.7
2019-Dec-13 02:30 094 1.1
2019-Dec-13 02:15 309 1.1
2019-Dec-13 02:00 029 0 gusting 1 0.6
2019-Dec-13 01:45 039 2 gusting 2 0.6
2019-Dec-13 01:30 129 -0.6
2019-Dec-13 01:18 160 0 gusting 1 -0.6
2019-Dec-13 01:02 219 1 gusting 3 -0.0
2019-Dec-13 00:46 020 0.6
2019-Dec-13 00:32 211 0.6
2019-Dec-13 00:17 022 2 gusting 3 -0.0
2019-Dec-13 00:02 184 -0.6
2019-Dec-12 23:46 149 -0.6
2019-Dec-12 23:33 115 -0.6
2019-Dec-12 23:17 208 0 gusting 3 -0.0
2019-Dec-12 23:02 208 1 gusting 2 1.1
2019-Dec-12 22:48 033 0 gusting 1 1.1
2019-Dec-12 22:31 146 0.6
2019-Dec-12 22:01 173 1 gusting 2 0.6
2019-Dec-12 21:46 204 0 gusting 2 1.1
2019-Dec-12 21:15 242 1.7
2019-Dec-12 21:01 226 2.2
2019-Dec-12 20:46 077 2.2
2019-Dec-12 20:31 142 1 gusting 3 2.2
2019-Dec-12 20:16 153 0 gusting 3 2.2
2019-Dec-12 20:00 075 3 gusting 6 2.2
2019-Dec-12 19:46 084 2.2
2019-Dec-12 19:31 077 1 gusting 4 1.7
2019-Dec-12 19:15 113 0 gusting 3 2.2
2019-Dec-12 19:00 235 2.2
2019-Dec-12 18:45 082 3 gusting 5 2.2
2019-Dec-12 18:30 025 3 gusting 4 2.2
2019-Dec-12 18:16 098 2.8
2019-Dec-12 18:01 043 1 gusting 4 2.2
2019-Dec-12 17:46 211 1 gusting 2 2.8
2019-Dec-12 17:30 032 2 gusting 10 2.8
2019-Dec-12 17:17 049 6 gusting 8 2.8
2019-Dec-12 17:00 027 3 gusting 6 2.8
2019-Dec-12 16:45 047 3 gusting 6 2.8
2019-Dec-12 16:30 049 4 gusting 6 2.8
2019-Dec-12 16:15 039 0 gusting 1 2.8
2019-Dec-12 16:00 041 0 gusting 3 3.3
2019-Dec-12 15:46 025 2 gusting 6 3.3
2019-Dec-12 15:30 043 3 gusting 6 3.3
2019-Dec-12 15:16 013 1 gusting 3 3.9
2019-Dec-12 15:00 006 1 gusting 4 3.9
2019-Dec-12 14:45 016 1 gusting 3 3.9
2019-Dec-12 14:30 304 3.9
2019-Dec-12 14:15 330 0 gusting 2 3.9
2019-Dec-12 14:00 027 2 gusting 4 3.3
2019-Dec-12 13:45 306 2 gusting 4 3.3
2019-Dec-12 13:30 073 3.3
2019-Dec-12 13:15 075 3.3
2019-Dec-12 13:00 013 3.3
2019-Dec-12 12:45 026 1 gusting 5 2.8
2019-Dec-12 12:30 025 1 gusting 5 3.3
2019-Dec-12 12:15 300 2 gusting 4 3.3
2019-Dec-12 12:00 314 2 gusting 4 3.3